Time;durP1;ratioP1;P1;durP2;ratioP2;P2;SDS_P1;SDS_P2;PMS_P1;PMS_P2;Temp;Humidity;BMP_temperature;BMP_pressure;BME280_temperature;BME280_humidity;BME280_pressure;Samples;Min_cycle;Max_cycle;Signal;HPM_P1;HPM_P2
2023/06/15 00:02:00;;;;;;;2.67;2.47;;;;;;;19.61;56.57;96930.50;10483228;28;20052;-76
2023/06/15 00:07:20;;;;;;;2.72;2.53;;;;;;;19.61;56.58;96924.31;10488654;28;20045;-75
2023/06/15 00:12:40;;;;;;;2.58;2.38;;;;;;;19.60;56.52;96917.28;10502433;28;20048;-75
2023/06/15 00:17:59;;;;;;;3.10;2.05;;;;;;;19.60;56.58;96923.50;10502177;28;20067;-76
2023/06/15 00:23:26;;;;;;;2.30;2.10;;;;;;;19.60;56.53;96922.69;10502076;28;20421;-76
2023/06/15 00:28:45;;;;;;;2.60;2.40;;;;;;;19.59;56.66;96915.72;10488712;28;20056;-76
2023/06/15 00:34:05;;;;;;;2.47;2.28;;;;;;;19.59;56.66;96926.53;10516564;28;20040;-75
2023/06/15 00:39:25;;;;;;;2.67;2.47;;;;;;;19.58;56.59;96925.72;10487826;28;20466;-75
2023/06/15 00:44:45;;;;;;;2.42;2.22;;;;;;;19.59;56.59;96927.31;10516204;28;20043;-75
2023/06/15 00:50:14;;;;;;;2.40;2.17;;;;;;;19.58;56.67;96928.41;10472896;28;20041;-75
2023/06/15 00:55:34;;;;;;;2.38;2.20;;;;;;;19.57;56.67;96921.44;10501140;28;20481;-75
2023/06/15 01:00:54;;;;;;;2.58;2.30;;;;;;;19.58;56.64;96922.22;10500481;28;20055;-73
2023/06/15 01:06:16;;;;;;;2.65;2.20;;;;;;;19.57;56.76;96924.16;10500576;28;20086;-73
2023/06/15 01:11:36;;;;;;;2.38;2.17;;;;;;;19.55;56.68;96916.34;10500227;28;20040;-73
2023/06/15 01:17:08;;;;;;;2.13;1.92;;;;;;;19.56;56.61;96915.25;10498985;28;20036;-73
2023/06/15 01:22:55;;;;;;;2.50;2.30;;;;;;;19.58;56.64;96914.13;10485998;28;20412;-73
2023/06/15 01:28:17;;;;;;;2.22;2.10;;;;;;;19.56;56.68;96909.84;10486207;28;20407;-73
2023/06/15 01:33:50;;;;;;;2.40;2.20;;;;;;;19.55;56.67;96910.94;10499398;28;20135;-72
2023/06/15 01:39:09;;;;;;;2.15;1.95;;;;;;;19.54;56.59;96914.78;10485041;28;20049;-73
2023/06/15 01:44:30;;;;;;;2.20;2.10;;;;;;;19.55;56.57;96912.88;10485004;28;20071;-73
2023/06/15 01:49:50;;;;;;;2.13;2.03;;;;;;;19.54;56.63;96909.38;10498817;28;20044;-73
2023/06/15 01:55:10;;;;;;;2.00;1.90;;;;;;;19.54;56.75;96909.38;10498688;28;20099;-73
2023/06/15 02:00:30;;;;;;;2.25;1.90;;;;;;;19.54;56.60;96903.97;10499158;28;20481;-75
2023/06/15 02:05:50;;;;;;;2.30;2.10;;;;;;;19.53;56.50;96899.66;10484374;28;20044;-75
2023/06/15 02:11:10;;;;;;;2.05;1.90;;;;;;;19.52;56.56;96897.28;10470163;28;20429;-75
2023/06/15 02:16:29;;;;;;;2.05;1.95;;;;;;;19.52;56.57;96908.09;10497777;28;20497;-75
2023/06/15 02:21:49;;;;;;;2.25;2.10;;;;;;;19.52;56.76;96899.97;10498728;28;20444;-76
2023/06/15 02:27:08;;;;;;;2.20;2.00;;;;;;;19.51;56.39;96901.13;10497358;28;20473;-76
2023/06/15 02:32:36;;;;;;;2.22;2.03;;;;;;;19.51;56.62;96910.00;10497054;28;20040;-76
2023/06/15 02:37:56;;;;;;;1.95;1.80;;;;;;;19.51;56.63;96898.41;10469390;28;20059;-76
2023/06/15 02:43:17;;;;;;;2.15;2.03;;;;;;;19.50;56.49;96911.13;10482962;28;20047;-75
2023/06/15 02:48:37;;;;;;;1.90;1.80;;;;;;;19.50;56.48;96904.91;10511643;28;20040;-75
2023/06/15 02:53:56;;;;;;;2.33;2.13;;;;;;;19.51;56.50;96915.41;10482743;28;20044;-75
2023/06/15 02:59:17;;;;;;;2.17;2.08;;;;;;;19.50;56.59;96919.25;10496220;28;20052;-75
2023/06/15 03:04:48;;;;;;;1.83;1.70;;;;;;;19.49;56.53;96916.84;10472545;28;20110;-75
2023/06/15 03:10:13;;;;;;;1.95;1.85;;;;;;;19.49;56.66;96914.94;10509868;28;20048;-75
2023/06/15 03:15:38;;;;;;;1.77;1.67;;;;;;;19.49;56.48;96920.34;10482311;28;20045;-75
2023/06/15 03:20:59;;;;;;;2.10;1.98;;;;;;;19.48;56.55;96929.56;10468228;28;20071;-75
2023/06/15 03:26:23;;;;;;;2.10;1.95;;;;;;;19.49;56.41;96933.84;10495627;28;20049;-75
2023/06/15 03:31:43;;;;;;;1.90;1.80;;;;;;;19.47;56.41;96941.47;10481752;28;20056;-75
2023/06/15 03:37:03;;;;;;;1.85;1.75;;;;;;;19.46;56.43;96945.28;10497930;28;20404;-75
2023/06/15 03:42:24;;;;;;;2.00;1.90;;;;;;;19.47;56.25;96946.09;10476431;28;20382;-75
2023/06/15 03:47:47;;;;;;;2.08;1.88;;;;;;;19.47;56.29;96951.50;10489688;28;20044;-75
2023/06/15 03:53:07;;;;;;;2.40;2.20;;;;;;;19.46;56.35;96953.38;10459365;28;20080;-74
2023/06/15 03:58:27;;;;;;;1.90;1.73;;;;;;;19.46;56.36;96945.28;10503241;28;20095;-75
2023/06/15 04:03:48;;;;;;;1.95;1.85;;;;;;;19.46;56.39;96945.28;10480803;28;20086;-75
2023/06/15 04:09:08;;;;;;;2.10;1.92;;;;;;;19.45;56.41;96951.81;10488526;28;20119;-75
2023/06/15 04:14:28;;;;;;;2.00;1.90;;;;;;;19.46;56.59;96949.91;10488348;28;20044;-75
2023/06/15 04:19:47;;;;;;;1.90;1.80;;;;;;;19.46;56.77;96950.69;10502191;28;20044;-75
2023/06/15 04:25:08;;;;;;;2.00;1.90;;;;;;;19.49;56.39;96960.88;10502095;28;20446;-75
2023/06/15 04:30:28;;;;;;;2.22;2.10;;;;;;;19.49;56.59;96954.69;10487939;28;20396;-75
2023/06/15 04:35:51;;;;;;;2.72;2.53;;;;;;;19.49;56.13;96960.09;10488121;28;20059;-75
2023/06/15 04:41:16;;;;;;;4.22;3.83;;;;;;;19.44;54.33;96961.03;10502716;28;20037;-76
2023/06/15 04:46:39;;;;;;;4.45;3.40;;;;;;;19.45;54.63;96968.03;10501539;28;20047;-75
2023/06/15 04:52:00;;;;;;;4.40;3.40;;;;;;;19.44;54.21;96957.53;10473604;28;20060;-75
2023/06/15 04:57:20;;;;;;;6.22;4.30;;;;;;;19.43;52.85;96969.47;10486812;28;20118;-76
2023/06/15 05:02:40;;;;;;;7.38;4.15;;;;;;;19.41;52.85;96969.78;10481090;28;20056;-74
2023/06/15 05:08:00;;;;;;;8.95;4.03;;;;;;;19.43;53.58;96978.38;10486357;28;20131;-75
2023/06/15 05:13:20;;;;;;;11.23;5.28;;;;;;;19.41;53.25;96969.78;10500278;28;20045;-75
2023/06/15 05:18:40;;;;;;;15.98;5.45;;;;;;;19.41;53.85;96980.59;10485994;28;20071;-75
2023/06/15 05:24:00;;;;;;;11.70;5.32;;;;;;;19.42;53.96;96984.88;10485819;28;20094;-75
2023/06/15 05:29:20;;;;;;;16.85;4.90;;;;;;;19.42;54.41;96981.38;10485527;28;20048;-75
2023/06/15 05:34:40;;;;;;;12.43;5.40;;;;;;;19.43;54.56;96983.75;10499365;28;20037;-74
2023/06/15 05:40:01;;;;;;;13.63;6.15;;;;;;;19.43;54.63;96986.47;10485149;28;20489;-75
2023/06/15 05:45:21;;;;;;;14.13;6.00;;;;;;;19.43;54.76;96983.75;10471313;28;20051;-74
2023/06/15 05:50:41;;;;;;;13.25;6.28;;;;;;;19.43;54.99;96991.88;10498691;28;20059;-74
2023/06/15 05:56:03;;;;;;;16.13;5.90;;;;;;;19.45;55.05;96991.56;10484815;28;20409;-75
2023/06/15 06:01:23;;;;;;;15.18;5.65;;;;;;;19.43;55.01;96994.56;10479346;28;20067;-75
2023/06/15 06:06:43;;;;;;;12.48;4.95;;;;;;;19.44;55.24;96996.16;10483997;28;20098;-75
2023/06/15 06:12:05;;;;;;;6.85;3.35;;;;;;;19.44;55.32;96998.84;10498011;28;20036;-74
2023/06/15 06:17:27;;;;;;;9.30;4.45;;;;;;;19.45;55.38;97007.78;10483768;28;20040;-74
2023/06/15 06:22:46;;;;;;;11.70;5.65;;;;;;;19.44;55.48;97006.94;10497489;28;20036;-75
2023/06/15 06:28:06;;;;;;;13.50;5.90;;;;;;;19.44;55.40;97004.25;10483284;28;20044;-75
2023/06/15 06:33:25;;;;;;;13.32;5.70;;;;;;;19.44;55.52;96998.84;10492807;28;20043;-75
2023/06/15 06:38:45;;;;;;;13.02;5.72;;;;;;;19.45;55.73;97002.38;10497576;28;20044;-74
2023/06/15 06:44:05;;;;;;;11.15;5.50;;;;;;;19.45;55.80;97008.56;10496513;28;20060;-74
2023/06/15 06:49:25;;;;;;;14.85;5.68;;;;;;;19.45;55.82;97008.56;10496171;28;20051;-75
2023/06/15 06:54:44;;;;;;;13.25;6.28;;;;;;;19.45;55.82;97013.97;10482627;28;20382;-75
2023/06/15 07:00:06;;;;;;;13.57;5.93;;;;;;;19.46;55.99;97020.16;10468651;28;20106;-73
2023/06/15 07:05:25;;;;;;;12.48;6.28;;;;;;;19.45;56.01;97013.97;10482981;28;20047;-73
2023/06/15 07:10:45;;;;;;;13.90;6.10;;;;;;;19.47;56.09;97013.66;10480999;28;20044;-73
2023/06/15 07:16:06;;;;;;;14.50;6.47;;;;;;;19.46;55.99;97004.72;10495641;28;20043;-73
2023/06/15 07:21:25;;;;;;;13.45;5.72;;;;;;;19.46;56.16;97012.84;10481735;28;20040;-73
2023/06/15 07:26:45;;;;;;;8.93;5.00;;;;;;;19.46;56.13;97015.53;10495577;28;20047;-73
2023/06/15 07:32:05;;;;;;;12.82;5.40;;;;;;;19.46;56.16;97009.34;10481249;28;20048;-73
2023/06/15 07:37:24;;;;;;;10.60;5.93;;;;;;;19.47;56.29;97006.34;10495321;28;20045;-73
2023/06/15 07:42:44;;;;;;;10.82;5.70;;;;;;;19.48;56.29;97005.22;10495000;28;20048;-73
2023/06/15 07:48:05;;;;;;;13.05;6.32;;;;;;;19.48;56.17;96999.81;10481003;28;20044;-73
2023/06/15 07:53:24;;;;;;;13.60;5.50;;;;;;;19.48;56.20;96997.13;10494989;28;20408;-73
2023/06/15 07:58:43;;;;;;;10.57;5.53;;;;;;;19.48;56.14;96999.81;10494860;28;20055;-73
2023/06/15 08:04:03;;;;;;;10.68;5.40;;;;;;;19.48;56.42;97010.63;10500761;28;20045;-73
2023/06/15 08:09:23;;;;;;;12.75;6.07;;;;;;;19.49;56.37;97006.81;10494731;28;20037;-73
2023/06/15 08:14:43;;;;;;;10.80;5.05;;;;;;;19.49;56.46;97011.41;10480771;28;20041;-73
2023/06/15 08:20:09;;;;;;;10.43;5.93;;;;;;;19.49;56.35;97004.09;10494463;28;20047;-73
2023/06/15 08:25:29;;;;;;;11.07;5.80;;;;;;;19.49;56.44;96997.91;10515212;28;20044;-73
2023/06/15 08:30:48;;;;;;;9.63;5.60;;;;;;;19.49;56.62;97004.09;10515951;28;20048;-73
2023/06/15 08:36:08;;;;;;;10.43;5.35;;;;;;;19.50;56.49;96994.91;10501815;28;20477;-73
2023/06/15 08:41:28;;;;;;;9.57;4.85;;;;;;;19.49;56.47;96997.91;10487480;28;20055;-73
2023/06/15 08:46:47;;;;;;;10.70;5.85;;;;;;;19.50;56.38;96994.09;10487288;28;20451;-73
2023/06/15 08:52:08;;;;;;;10.90;5.10;;;;;;;19.48;56.46;96989.03;10487001;28;20526;-73
2023/06/15 08:57:28;;;;;;;9.13;5.07;;;;;;;19.49;56.45;96996.00;10501469;28;20044;-73
2023/06/15 09:02:50;;;;;;;9.13;5.20;;;;;;;19.49;56.66;96996.00;10495076;28;20056;-73
2023/06/15 09:08:10;;;;;;;9.23;5.00;;;;;;;19.50;56.57;96988.69;10500854;28;20064;-73
2023/06/15 09:13:33;;;;;;;9.27;5.18;;;;;;;19.50;56.57;96994.91;10500301;28;20484;-73
2023/06/15 09:18:53;;;;;;;8.85;4.70;;;;;;;19.50;56.59;96994.91;10500269;28;20051;-73
2023/06/15 09:24:15;;;;;;;7.47;4.63;;;;;;;19.50;56.65;97000.31;10486277;28;20045;-73
2023/06/15 09:29:35;;;;;;;8.07;4.47;;;;;;;19.50;56.64;97003.00;10499655;28;20070;-73
2023/06/15 09:34:59;;;;;;;6.90;4.25;;;;;;;19.51;56.62;97006.50;10498671;28;20052;-73
2023/06/15 09:40:19;;;;;;;7.20;3.92;;;;;;;19.49;56.62;96993.28;10499063;28;20048;-73
2023/06/15 09:45:52;;;;;;;7.30;4.85;;;;;;;19.50;56.63;96986.78;10484981;28;20064;-73
2023/06/15 09:51:11;;;;;;;8.48;4.63;;;;;;;19.50;56.76;96986.78;10470747;28;20040;-73
2023/06/15 09:56:33;;;;;;;7.15;4.85;;;;;;;19.51;56.68;96984.88;10513650;28;20040;-73
2023/06/15 10:01:55;;;;;;;8.32;4.95;;;;;;;19.51;56.69;96980.25;10495307;28;20102;-73
2023/06/15 10:07:17;;;;;;;5.65;4.00;;;;;;;19.50;56.74;96989.50;10484188;28;20037;-73
2023/06/15 10:12:39;;;;;;;6.82;4.20;;;;;;;19.50;56.78;96984.09;10483892;28;20040;-73
2023/06/15 10:18:01;;;;;;;7.55;4.30;;;;;;;19.49;56.83;96982.50;10497796;28;20040;-73
2023/06/15 10:23:25;;;;;;;6.45;3.90;;;;;;;19.50;56.75;96973.28;10483737;28;20043;-73
2023/06/15 10:28:49;;;;;;;2.83;1.85;;;;;;;19.51;56.76;96971.38;10497968;28;20036;-73
2023/06/15 10:34:15;;;;;;;7.22;4.03;;;;;;;19.51;56.78;96974.06;10497100;28;20044;-73
2023/06/15 10:39:38;;;;;;;6.78;4.07;;;;;;;19.50;56.65;96961.66;10496766;28;20037;-73
2023/06/15 10:44:58;;;;;;;5.43;3.80;;;;;;;19.51;56.82;96960.56;10511727;28;20045;-73
2023/06/15 10:50:18;;;;;;;6.65;3.90;;;;;;;19.49;56.73;96955.47;10482407;28;20044;-73
2023/06/15 10:55:38;;;;;;;7.25;4.00;;;;;;;19.50;56.72;96956.25;10496371;28;20037;-73
2023/06/15 11:01:03;;;;;;;5.95;3.65;;;;;;;19.51;56.87;96950.53;10482542;28;20054;-73
2023/06/15 11:06:34;;;;;;;9.32;4.30;;;;;;;19.50;57.00;96946.25;10511921;28;20087;-72
2023/06/15 11:11:53;;;;;;;6.68;4.32;;;;;;;19.50;56.78;96934.63;10482951;28;20381;-73
2023/06/15 11:17:20;;;;;;;6.03;3.13;;;;;;;19.50;56.84;96934.63;10482466;28;20110;-73
2023/06/15 11:22:40;;;;;;;5.88;3.70;;;;;;;19.51;56.65;96939.72;10496287;28;20044;-73
2023/06/15 11:28:00;;;;;;;4.97;3.40;;;;;;;19.50;56.90;96945.44;10496341;28;20539;-73
2023/06/15 11:33:37;;;;;;;5.75;3.63;;;;;;;19.51;56.83;96936.25;10496162;28;20036;-73
2023/06/15 11:38:57;;;;;;;5.53;3.97;;;;;;;19.51;56.84;96930.84;10496265;28;20086;-73
2023/06/15 11:44:30;;;;;;;5.38;4.10;;;;;;;19.50;56.90;96934.63;10495758;28;20048;-73
2023/06/15 11:49:50;;;;;;;5.95;3.90;;;;;;;19.51;56.84;96934.31;10497280;28;20049;-72
2023/06/15 11:55:10;;;;;;;6.28;4.20;;;;;;;19.50;56.97;96932.75;10495703;28;20047;-73
2023/06/15 12:00:30;;;;;;;4.05;3.33;;;;;;;19.51;56.98;96931.63;10488050;28;20447;-73
2023/06/15 12:05:59;;;;;;;5.45;3.63;;;;;;;19.51;56.90;96937.03;10503653;28;20042;-73
2023/06/15 12:11:23;;;;;;;5.00;3.63;;;;;;;19.52;56.99;96927.00;10503822;28;20040;-73
2023/06/15 12:16:49;;;;;;;6.40;3.88;;;;;;;19.52;56.90;96927.00;10503380;28;20044;-73
2023/06/15 12:22:09;;;;;;;5.45;4.15;;;;;;;19.51;56.95;96920.81;10503002;28;20052;-73
2023/06/15 12:27:31;;;;;;;4.80;3.60;;;;;;;19.51;57.10;96915.41;10502199;28;20484;-73
2023/06/15 12:32:51;;;;;;;4.43;3.53;;;;;;;19.52;56.96;96917.00;10502301;28;20048;-73
2023/06/15 12:38:11;;;;;;;5.78;3.90;;;;;;;19.52;57.11;96913.50;10502169;28;20725;-73
2023/06/15 12:43:30;;;;;;;4.68;3.05;;;;;;;19.52;57.23;96908.91;10516481;28;20094;-73
2023/06/15 12:48:49;;;;;;;6.65;3.58;;;;;;;19.52;57.08;96906.19;10487097;28;20040;-73
2023/06/15 12:54:09;;;;;;;5.20;3.78;;;;;;;19.52;57.04;96903.50;10486959;28;20048;-73
2023/06/15 12:59:28;;;;;;;7.43;3.95;;;;;;;19.54;57.19;96903.16;10501240;28;20040;-73
2023/06/15 13:04:49;;;;;;;4.72;3.13;;;;;;;19.53;57.30;96896.97;10489508;28;20056;-73
2023/06/15 13:10:09;;;;;;;4.95;3.05;;;;;;;19.53;57.13;96896.97;10485325;28;20045;-73
2023/06/15 13:15:29;;;;;;;5.38;3.60;;;;;;;19.54;57.22;96890.47;10515288;28;20063;-73
2023/06/15 13:20:48;;;;;;;5.18;3.42;;;;;;;19.53;57.12;96891.56;10500133;28;20058;-73
2023/06/15 13:26:07;;;;;;;4.43;3.25;;;;;;;19.53;57.18;96896.19;10499981;28;20074;-73
2023/06/15 13:31:27;;;;;;;3.60;3.00;;;;;;;19.54;57.10;96895.88;10485601;28;20064;-73
2023/06/15 13:36:46;;;;;;;4.78;3.65;;;;;;;19.53;57.19;96886.16;10499359;28;20119;-73
2023/06/15 13:42:07;;;;;;;4.63;3.28;;;;;;;19.54;57.11;96893.16;10484924;28;20044;-73
2023/06/15 13:47:26;;;;;;;4.25;3.15;;;;;;;19.53;57.13;96888.84;10514101;28;20044;-73
2023/06/15 13:52:46;;;;;;;5.07;3.25;;;;;;;19.53;57.16;96888.84;10498720;28;20097;-73
2023/06/15 13:58:06;;;;;;;4.30;3.45;;;;;;;19.53;57.21;96891.56;10484823;28;20044;-73
2023/06/15 14:03:26;;;;;;;4.18;3.30;;;;;;;19.54;57.28;96881.53;10484321;28;20455;-73
2023/06/15 14:08:46;;;;;;;3.15;2.70;;;;;;;19.54;57.30;96882.34;10484023;28;20040;-73
2023/06/15 14:14:06;;;;;;;3.90;2.97;;;;;;;19.57;57.45;96880.91;10497902;28;20045;-72
2023/06/15 14:19:25;;;;;;;4.00;3.13;;;;;;;19.56;57.32;96877.41;10497713;28;20048;-73
2023/06/15 14:24:45;;;;;;;3.72;2.90;;;;;;;19.58;57.51;96870.88;10512425;28;20045;-73
2023/06/15 14:30:05;;;;;;;3.33;2.42;;;;;;;19.58;57.56;96876.28;10497171;28;20041;-73
2023/06/15 14:35:26;;;;;;;4.40;3.05;;;;;;;19.60;57.42;96868.66;10483075;28;20047;-73
2023/06/15 14:40:45;;;;;;;4.45;2.95;;;;;;;19.60;57.47;96871.34;10482770;28;20531;-73
2023/06/15 14:46:04;;;;;;;3.50;2.53;;;;;;;19.61;57.70;96871.03;10511764;28;20044;-73
2023/06/15 14:51:24;;;;;;;4.15;3.08;;;;;;;19.63;57.72;96868.03;10496318;28;20056;-73
2023/06/15 14:56:43;;;;;;;3.20;2.50;;;;;;;19.66;57.79;96867.34;10468399;28;20040;-73
2023/06/15 15:02:03;;;;;;;3.33;2.40;;;;;;;19.67;57.72;96866.25;10493133;28;20373;-73
2023/06/15 15:07:23;;;;;;;3.22;2.20;;;;;;;19.66;57.63;96865.47;10495981;28;20048;-73
2023/06/15 15:12:42;;;;;;;3.47;2.60;;;;;;;19.67;57.60;96869.75;10509856;28;20040;-73
2023/06/15 15:18:03;;;;;;;3.97;2.95;;;;;;;19.67;57.70;96875.16;10495828;28;20044;-73
2023/06/15 15:23:23;;;;;;;2.97;2.53;;;;;;;19.67;57.59;96871.66;10511355;28;20124;-73
2023/06/15 15:28:42;;;;;;;3.70;2.92;;;;;;;19.66;57.64;96870.88;10481784;28;20037;-73
2023/06/15 15:34:02;;;;;;;3.22;2.58;;;;;;;19.66;57.64;96872.75;10508635;28;20041;-73
2023/06/15 15:39:23;;;;;;;3.03;2.60;;;;;;;19.65;57.76;96865.78;10495104;28;20048;-73
2023/06/15 15:44:42;;;;;;;2.55;2.35;;;;;;;19.65;57.65;96871.97;10495333;28;20335;-73
2023/06/15 15:50:02;;;;;;;3.42;2.63;;;;;;;19.64;57.71;96866.88;10494962;28;20051;-73
2023/06/15 15:55:22;;;;;;;3.55;2.80;;;;;;;19.65;57.60;96868.50;10467352;28;20055;-73
2023/06/15 16:00:41;;;;;;;3.42;2.67;;;;;;;19.63;57.60;96858.00;10494884;28;20443;-73
2023/06/15 16:06:01;;;;;;;2.88;2.53;;;;;;;19.64;57.72;96866.88;10494703;28;20051;-73
2023/06/15 16:11:22;;;;;;;2.50;2.30;;;;;;;19.64;57.80;96902.84;10480550;28;20052;-73
2023/06/15 16:16:41;;;;;;;2.50;1.80;;;;;;;19.64;57.59;96912.84;10494880;28;20040;-73
2023/06/15 16:22:01;;;;;;;3.67;2.60;;;;;;;19.64;57.66;96913.66;10480503;28;20484;-73
2023/06/15 16:27:20;;;;;;;2.58;2.33;;;;;;;19.64;57.46;96924.47;10495811;28;20045;-73
2023/06/15 16:32:40;;;;;;;2.92;2.35;;;;;;;19.64;57.74;96932.56;10494360;28;20428;-73
2023/06/15 16:38:00;;;;;;;2.35;2.00;;;;;;;19.63;57.48;96943.69;10494283;28;20041;-73
2023/06/15 16:43:19;;;;;;;3.78;2.80;;;;;;;19.63;57.58;96949.09;10509706;28;20084;-73
2023/06/15 16:48:39;;;;;;;3.33;2.15;;;;;;;19.61;57.02;96952.13;10488496;28;20040;-73
2023/06/15 16:53:58;;;;;;;3.35;3.03;;;;;;;19.62;57.16;96952.91;10501238;28;20074;-73
2023/06/15 16:59:18;;;;;;;5.55;3.15;;;;;;;19.56;55.59;96958.50;10473201;28;20041;-72
2023/06/15 17:04:37;;;;;;;5.72;3.42;;;;;;;19.55;55.26;96962.28;10476097;28;20127;-72
2023/06/15 17:09:57;;;;;;;4.90;3.40;;;;;;;19.53;54.36;96967.22;10486355;28;20045;-72
2023/06/15 17:15:17;;;;;;;7.25;3.65;;;;;;;19.51;53.41;96963.25;10500123;28;20094;-73
2023/06/15 17:20:36;;;;;;;3.55;3.22;;;;;;;19.46;53.36;96976.91;10472096;28;20048;-73
2023/06/15 17:25:55;;;;;;;6.00;2.90;;;;;;;19.41;53.35;96969.00;10499712;28;20048;-73
2023/06/15 17:31:15;;;;;;;4.53;2.97;;;;;;;19.34;54.02;96977.56;10471571;28;20051;-72
2023/06/15 17:36:34;;;;;;;9.75;3.08;;;;;;;19.29;54.72;96969.63;10499224;28;20040;-73
2023/06/15 17:41:54;;;;;;;4.05;2.92;;;;;;;19.22;54.73;96962.00;10498918;28;20071;-74
2023/06/15 17:47:14;;;;;;;5.32;3.40;;;;;;;19.15;54.75;96935.47;10513033;28;20047;-74
2023/06/15 17:52:34;;;;;;;5.05;2.75;;;;;;;19.12;56.02;96906.38;10457377;28;20378;-73
2023/06/15 17:57:54;;;;;;;3.47;3.05;;;;;;;19.15;56.23;96900.38;10484467;28;20063;-75
2023/06/15 18:03:14;;;;;;;3.45;2.85;;;;;;;19.24;56.07;96891.47;10488387;28;20416;-75
2023/06/15 18:08:34;;;;;;;5.63;2.97;;;;;;;19.30;56.05;96887.47;10497822;28;20045;-75
2023/06/15 18:13:53;;;;;;;5.05;3.25;;;;;;;19.33;55.98;96876.81;10469484;28;20485;-75
2023/06/15 18:19:16;;;;;;;9.10;2.80;;;;;;;19.36;55.85;96878.88;10483559;28;20560;-75
2023/06/15 18:24:35;;;;;;;4.15;2.90;;;;;;;19.39;55.95;96873.97;10497110;28;20484;-73
2023/06/15 18:30:03;;;;;;;8.10;3.40;;;;;;;19.40;55.57;96873.63;10483032;28;20404;-73
2023/06/15 18:35:22;;;;;;;3.53;3.13;;;;;;;19.41;55.57;96883.31;10512090;28;20048;-74
2023/06/15 18:40:43;;;;;;;4.25;3.03;;;;;;;19.43;55.68;96885.72;10496660;28;20048;-74
2023/06/15 18:46:03;;;;;;;3.70;3.03;;;;;;;19.43;55.47;96877.63;10511504;28;20047;-74
2023/06/15 18:51:23;;;;;;;3.33;3.03;;;;;;;19.43;55.70;96889.22;10511332;28;20067;-74
2023/06/15 18:56:42;;;;;;;6.22;3.53;;;;;;;19.45;55.81;96892.38;10482260;28;20049;-74
2023/06/15 19:02:05;;;;;;;3.30;3.00;;;;;;;19.46;55.61;96888.53;10507329;28;20503;-75
2023/06/15 19:07:25;;;;;;;3.42;3.00;;;;;;;19.49;55.79;96898.72;10511839;28;20040;-74
2023/06/15 19:12:45;;;;;;;6.55;3.47;;;;;;;19.52;55.87;96895.41;10467593;28;20124;-74
2023/06/15 19:18:04;;;;;;;5.15;3.30;;;;;;;19.53;55.98;96896.97;10481436;28;20036;-74
2023/06/15 19:23:24;;;;;;;5.63;3.35;;;;;;;19.55;56.17;96905.53;10495126;28;20120;-74
2023/06/15 19:28:44;;;;;;;5.22;2.58;;;;;;;19.58;56.32;96911.41;10495204;28;20044;-74
2023/06/15 19:34:04;;;;;;;5.53;3.17;;;;;;;19.60;56.24;96914.59;10481283;28;20401;-74
2023/06/15 19:39:27;;;;;;;5.18;3.55;;;;;;;19.63;56.42;96924.78;10494699;28;20040;-74
2023/06/15 19:44:46;;;;;;;9.77;3.90;;;;;;;19.63;56.45;96922.06;10481102;28;20043;-74
2023/06/15 19:50:06;;;;;;;3.78;3.30;;;;;;;19.65;56.40;96930.66;10480482;28;20037;-74
2023/06/15 19:55:26;;;;;;;4.22;3.67;;;;;;;19.65;56.54;96944.16;10494737;28;20040;-74
2023/06/15 20:00:45;;;;;;;5.20;3.30;;;;;;;19.66;56.56;96940.31;10494980;28;20048;-74
2023/06/15 20:06:06;;;;;;;5.10;3.35;;;;;;;19.66;56.61;96940.31;10508534;28;20045;-74
2023/06/15 20:11:26;;;;;;;4.88;2.80;;;;;;;19.67;56.66;96936.53;10495110;28;20047;-74
2023/06/15 20:16:46;;;;;;;5.47;4.80;;;;;;;19.63;55.81;96941.78;10494265;28;20040;-75
2023/06/15 20:22:07;;;;;;;7.05;4.10;;;;;;;19.65;55.78;96938.75;10487090;28;20052;-75
2023/06/15 20:27:27;;;;;;;3.95;3.55;;;;;;;19.66;56.22;96945.72;10516858;28;20052;-75
2023/06/15 20:32:46;;;;;;;4.32;3.47;;;;;;;19.66;56.41;96937.63;10502820;28;20408;-74
2023/06/15 20:38:06;;;;;;;5.20;3.10;;;;;;;19.67;56.58;96939.22;10501681;28;20041;-75
2023/06/15 20:43:27;;;;;;;3.80;3.10;;;;;;;19.69;56.58;96937.00;10501227;28;20524;-75
2023/06/15 20:48:46;;;;;;;6.20;3.47;;;;;;;19.70;56.58;96941.31;10501020;28;20037;-82
2023/06/15 20:54:07;;;;;;;6.03;3.40;;;;;;;19.69;56.66;96935.06;10501031;28;20044;-75
2023/06/15 20:59:27;;;;;;;5.45;3.30;;;;;;;19.70;56.69;96930.50;10458588;28;20056;-75
2023/06/15 21:04:49;;;;;;;5.05;3.10;;;;;;;19.70;56.77;96922.38;10434191;28;20053;-75
2023/06/15 21:10:09;;;;;;;4.82;3.67;;;;;;;19.70;56.63;96927.78;10459002;28;20044;-74
2023/06/15 21:15:28;;;;;;;4.13;2.80;;;;;;;19.71;56.57;96926.66;10444598;28;20045;-75
2023/06/15 21:20:48;;;;;;;5.65;3.15;;;;;;;19.70;56.68;96917.75;10458663;28;20048;-75
2023/06/15 21:26:08;;;;;;;3.45;2.90;;;;;;;19.70;56.77;96914.28;10460494;28;20048;-75
2023/06/15 21:31:28;;;;;;;4.13;3.15;;;;;;;19.70;56.77;96916.97;10498315;28;20401;-74
2023/06/15 21:36:48;;;;;;;4.53;3.45;;;;;;;19.70;56.71;96925.09;10513461;28;20040;-75
2023/06/15 21:42:08;;;;;;;3.67;3.20;;;;;;;19.71;56.63;96926.66;10514110;28;20098;-75
2023/06/15 21:47:27;;;;;;;4.53;2.95;;;;;;;19.71;56.45;96926.66;10514067;28;20053;-75
2023/06/15 21:52:47;;;;;;;4.25;3.20;;;;;;;19.70;56.63;96923.16;10498809;28;20051;-75
2023/06/15 21:58:08;;;;;;;3.40;3.10;;;;;;;19.70;56.53;96916.97;10499241;28;20485;-72
2023/06/15 22:03:27;;;;;;;4.75;3.15;;;;;;;19.70;56.61;96923.16;10491407;28;20048;-72
2023/06/15 22:08:46;;;;;;;3.83;2.85;;;;;;;19.70;56.59;96916.97;10498023;28;20067;-72
2023/06/15 22:14:06;;;;;;;2.97;2.50;;;;;;;19.69;56.34;96909.97;10497685;28;20045;-72
2023/06/15 22:19:26;;;;;;;3.28;2.72;;;;;;;19.70;56.39;96912.34;10483586;28;20443;-72
2023/06/15 22:24:45;;;;;;;3.83;3.20;;;;;;;19.70;56.44;96911.56;10497395;28;20425;-72
2023/06/15 22:30:05;;;;;;;3.42;2.55;;;;;;;19.70;56.50;96911.56;10497213;28;20040;-72
2023/06/15 22:35:25;;;;;;;3.75;2.90;;;;;;;19.70;56.46;96908.88;10497051;28;20041;-72
2023/06/15 22:40:44;;;;;;;4.00;2.67;;;;;;;19.69;56.54;96904.56;10496329;28;20456;-72
2023/06/15 22:46:03;;;;;;;2.70;2.50;;;;;;;19.68;56.46;96902.97;10496758;28;20036;-72
2023/06/15 22:51:23;;;;;;;3.28;2.97;;;;;;;19.68;56.36;96902.97;10496566;28;20041;-72
2023/06/15 22:56:42;;;;;;;3.40;3.03;;;;;;;19.68;56.36;96894.84;10496139;28;20450;-72
2023/06/15 23:02:02;;;;;;;4.55;3.03;;;;;;;19.68;56.34;96892.97;10478295;28;20057;-72
2023/06/15 23:07:23;;;;;;;3.65;2.85;;;;;;;19.67;56.48;96875.16;10495834;28;20040;-72
2023/06/15 23:12:50;;;;;;;3.45;2.90;;;;;;;19.68;56.41;96873.22;10510804;28;20442;-72
2023/06/15 23:18:09;;;;;;;3.13;2.70;;;;;;;19.66;56.46;96865.47;10510420;28;20048;-72
2023/06/15 23:23:36;;;;;;;3.25;2.70;;;;;;;19.68;56.36;96875.94;10495557;28;20037;-72
2023/06/15 23:28:56;;;;;;;3.05;2.75;;;;;;;19.67;56.41;96868.97;10496262;28;20169;-72
2023/06/15 23:34:16;;;;;;;3.50;2.67;;;;;;;19.67;56.30;96867.03;10495295;28;20033;-72
2023/06/15 23:39:35;;;;;;;2.75;2.55;;;;;;;19.66;56.30;96865.47;10494561;28;20047;-72
2023/06/15 23:45:00;;;;;;;3.00;2.70;;;;;;;19.66;56.35;96851.13;10480801;28;20041;-72
2023/06/15 23:50:19;;;;;;;3.85;2.90;;;;;;;19.66;56.33;96851.13;10495541;28;20040;-72
2023/06/15 23:55:41;;;;;;;2.88;2.55;;;;;;;19.65;56.23;96839.53;10499662;28;20086;-72
